createdAt,value
2023-04-01T00:00:32.672Z,137.87
2023-04-01T00:01:32.778Z,137.01
2023-04-01T00:02:32.835Z,135.57
2023-04-01T00:03:33.050Z,133.88
2023-04-01T00:04:32.855Z,136.66
2023-04-01T00:05:32.988Z,138.31
2023-04-01T00:06:32.814Z,135.15
2023-04-01T00:07:32.821Z,133.24
2023-04-01T00:08:32.856Z,136.07
2023-04-01T00:09:32.882Z,134.31
2023-04-01T00:10:32.881Z,135.41
2023-04-01T00:11:32.931Z,138.29
2023-04-01T00:12:32.978Z,134.41
2023-04-01T00:13:32.945Z,134.29
2023-04-01T00:14:32.976Z,136.00
2023-04-01T00:15:33.376Z,133.17
2023-04-01T00:16:33.061Z,133.23
2023-04-01T00:17:33.057Z,133.65
2023-04-01T00:18:33.045Z,134.03
2023-04-01T00:19:33.118Z,133.49
2023-04-01T00:20:33.103Z,134.46
2023-04-01T00:21:33.124Z,133.12
2023-04-01T00:22:33.111Z,135.57
2023-04-01T00:23:33.161Z,133.43
2023-04-01T00:24:33.372Z,136.59
2023-04-01T00:25:33.501Z,133.58
2023-04-01T00:26:33.201Z,134.25
2023-04-01T00:27:33.267Z,136.16
2023-04-01T00:28:33.316Z,134.28
2023-04-01T00:29:33.306Z,136.51
2023-04-01T00:30:33.327Z,135.22
2023-04-01T00:31:33.409Z,133.67
2023-04-01T00:32:34.402Z,134.78
2023-04-01T00:33:33.443Z,131.74
2023-04-01T00:34:33.494Z,132.69
2023-04-01T00:35:33.759Z,131.47
2023-04-01T00:36:33.543Z,134.22
2023-04-01T00:37:33.521Z,134.27
2023-04-01T00:38:33.590Z,134.22
2023-04-01T00:39:33.573Z,130.20
2023-04-01T00:40:33.676Z,130.90
2023-04-01T00:41:33.702Z,131.68
2023-04-01T00:42:33.712Z,133.44
2023-04-01T00:43:33.756Z,133.56
2023-04-01T00:44:33.780Z,129.45
2023-04-01T00:45:34.064Z,134.07
2023-04-01T00:46:33.840Z,133.99
2023-04-01T00:47:33.916Z,132.20
2023-04-01T00:48:33.848Z,136.08
2023-04-01T00:49:33.869Z,134.79
2023-04-01T00:50:33.951Z,134.48
2023-04-01T00:51:33.924Z,132.30
2023-04-01T00:52:33.939Z,131.74
2023-04-01T00:53:33.992Z,132.97
2023-04-01T00:54:33.977Z,132.57
2023-04-01T00:55:34.240Z,132.44
2023-04-01T00:56:34.019Z,130.83
2023-04-01T00:57:34.091Z,134.14
2023-04-01T00:58:34.077Z,132.75
2023-04-01T00:59:34.077Z,131.21
2023-04-01T01:00:34.194Z,132.43
2023-04-01T01:01:34.128Z,131.64
2023-04-01T01:02:34.246Z,131.18
2023-04-01T01:03:34.165Z,133.37
2023-04-01T01:04:34.222Z,134.43
2023-04-01T01:05:42.404Z,134.85
2023-04-01T01:06:35.206Z,134.97
2023-04-01T01:07:34.191Z,134.09
2023-04-01T01:08:34.186Z,134.27
2023-04-01T01:09:34.213Z,132.73
2023-04-01T01:10:34.159Z,134.06
2023-04-01T01:11:42.561Z,133.15
2023-04-01T01:12:35.409Z,133.29
2023-04-01T01:13:34.195Z,133.41
2023-04-01T01:14:34.124Z,132.51
2023-04-01T01:15:34.292Z,135.09
2023-04-01T01:16:34.155Z,133.70
2023-04-01T01:17:34.238Z,136.36
2023-04-01T01:18:34.160Z,133.34
2023-04-01T01:19:34.122Z,131.42
2023-04-01T01:20:34.125Z,130.81
2023-04-01T01:21:34.140Z,131.85
2023-04-01T01:22:34.088Z,134.97
2023-04-01T01:23:34.070Z,130.96
2023-04-01T01:24:34.088Z,132.22
2023-04-01T01:25:34.334Z,130.47
2023-04-01T01:26:34.068Z,131.54
2023-04-01T01:27:34.060Z,131.03
2023-04-01T01:28:34.114Z,132.73
2023-04-01T01:29:34.138Z,127.43
2023-04-01T01:30:34.159Z,129.83
2023-04-01T01:31:34.205Z,134.71
2023-04-01T01:32:34.236Z,134.31
2023-04-01T01:33:34.928Z,130.65
2023-04-01T01:34:34.260Z,133.77
2023-04-01T01:35:34.609Z,130.01
2023-04-01T01:36:34.298Z,128.16
2023-04-01T01:37:34.351Z,132.15
2023-04-01T01:38:34.383Z,132.13
2023-04-01T01:39:34.383Z,133.18
2023-04-01T01:40:34.456Z,128.86
2023-04-01T01:41:34.467Z,129.58
2023-04-01T01:42:34.480Z,128.10
2023-04-01T01:43:34.486Z,132.75
2023-04-01T01:44:34.524Z,130.20
2023-04-01T01:45:34.574Z,129.92
2023-04-01T01:46:35.461Z,130.66
2023-04-01T01:47:34.627Z,130.66
2023-04-01T01:48:34.617Z,130.42
2023-04-01T01:49:34.663Z,132.07
2023-04-01T01:50:34.673Z,129.44
2023-04-01T01:51:34.668Z,130.67
2023-04-01T01:52:34.698Z,130.13
2023-04-01T01:53:34.764Z,130.56
2023-04-01T01:54:34.762Z,132.61
2023-04-01T01:55:35.004Z,129.47
2023-04-01T01:56:34.827Z,130.31
2023-04-01T01:57:35.030Z,130.06
2023-04-01T01:58:34.929Z,131.04
2023-04-01T01:59:34.942Z,130.20
2023-04-01T02:00:34.944Z,130.25
2023-04-01T02:01:35.040Z,131.08
2023-04-01T02:02:35.024Z,130.06
2023-04-01T02:03:35.033Z,130.46
2023-04-01T02:04:35.922Z,129.51
2023-04-01T02:05:35.278Z,129.17
2023-04-01T02:06:35.098Z,130.43
2023-04-01T02:07:35.163Z,127.46
2023-04-01T02:08:35.142Z,132.06
2023-04-01T02:09:35.206Z,129.25
2023-04-01T02:10:35.215Z,130.99
2023-04-01T02:11:35.243Z,128.46
2023-04-01T02:12:35.307Z,129.00
2023-04-01T02:13:35.298Z,128.92
2023-04-01T02:14:35.308Z,130.16
2023-04-01T02:15:35.330Z,129.99
2023-04-01T02:16:35.358Z,129.74
2023-04-01T02:17:35.503Z,125.89
2023-04-01T02:18:35.410Z,131.49
2023-04-01T02:19:35.455Z,127.95
2023-04-01T02:20:35.498Z,129.09
2023-04-01T02:21:35.523Z,130.63
2023-04-01T02:22:35.573Z,129.43
2023-04-01T02:23:35.550Z,127.24
2023-04-01T02:24:35.591Z,130.29
2023-04-01T02:25:35.807Z,125.91
2023-04-01T02:26:35.670Z,128.26
2023-04-01T02:27:35.706Z,127.07
2023-04-01T02:28:35.707Z,124.59
2023-04-01T02:29:35.731Z,126.80
2023-04-01T02:30:35.792Z,124.66
2023-04-01T02:31:35.810Z,126.40
2023-04-01T02:32:35.880Z,129.95
2023-04-01T02:33:35.975Z,125.50
2023-04-01T02:34:35.861Z,128.69
2023-04-01T02:36:54.930Z,25.00
2023-04-01T02:37:54.698Z,25.00
2023-04-01T02:38:54.658Z,25.00
2023-04-01T02:39:54.653Z,25.00
2023-04-01T02:40:54.636Z,25.00
2023-04-01T02:41:54.638Z,25.72
2023-04-01T02:42:54.650Z,28.12
2023-04-01T02:43:54.668Z,30.61
2023-04-01T02:44:54.634Z,25.68
2023-04-01T02:45:54.642Z,25.43
2023-04-01T02:46:54.641Z,28.15
2023-04-01T02:47:54.712Z,27.82
2023-04-01T02:48:54.601Z,25.17
2023-04-01T02:49:54.591Z,28.84
2023-04-01T02:50:54.605Z,28.69
2023-04-01T02:51:54.922Z,27.92
2023-04-01T02:52:55.404Z,26.61
2023-04-01T02:53:55.409Z,29.03
2023-04-01T02:54:55.410Z,28.58
2023-04-01T02:55:54.612Z,27.18
2023-04-01T02:56:54.620Z,26.54
2023-04-01T02:57:54.630Z,29.90
2023-04-01T02:58:54.602Z,27.36
2023-04-01T02:59:54.564Z,28.18
2023-04-01T03:00:54.586Z,25.58
2023-04-01T03:01:54.601Z,28.68
2023-04-01T03:02:54.696Z,27.58
2023-04-01T03:03:54.508Z,27.65
2023-04-01T03:04:54.570Z,26.30
2023-04-01T03:05:54.567Z,31.41
2023-04-01T03:06:54.614Z,27.45
2023-04-01T03:07:54.557Z,30.93
2023-04-01T03:08:54.536Z,32.00
2023-04-01T03:09:54.503Z,26.10
2023-04-01T03:10:54.443Z,28.27
2023-04-01T03:11:54.454Z,30.06
2023-04-01T03:12:54.456Z,30.16
2023-04-01T03:13:54.421Z,32.99
2023-04-01T03:14:54.424Z,30.82
2023-04-01T03:15:54.427Z,32.61
2023-04-01T03:16:54.519Z,30.00
2023-04-01T03:17:54.530Z,32.08
2023-04-01T03:18:54.427Z,30.19
2023-04-01T03:19:54.394Z,31.57
2023-04-01T03:20:54.422Z,28.60
2023-04-01T03:21:54.373Z,27.05
2023-04-01T03:22:54.890Z,29.41
2023-04-01T03:23:54.391Z,28.32
2023-04-01T03:24:54.370Z,28.91
2023-04-01T03:25:54.344Z,30.40
2023-04-01T03:26:54.360Z,28.40
2023-04-01T03:27:54.348Z,28.10
2023-04-01T03:28:54.347Z,33.19
2023-04-01T03:29:54.364Z,30.46
2023-04-01T03:30:54.321Z,31.53
2023-04-01T03:31:54.264Z,30.68
2023-04-01T03:32:54.335Z,30.91
2023-04-01T03:33:54.310Z,28.77
2023-04-01T03:34:54.258Z,29.55
2023-04-01T03:35:54.308Z,27.84
2023-04-01T03:36:54.305Z,29.99
2023-04-01T03:37:54.313Z,28.33
2023-04-01T03:38:54.391Z,32.77
2023-04-01T03:39:54.439Z,30.62
2023-04-01T03:40:54.444Z,30.43
2023-04-01T03:41:54.433Z,27.56
2023-04-01T03:42:54.498Z,28.46
2023-04-01T03:43:54.517Z,31.36
2023-04-01T03:44:54.522Z,30.28
2023-04-01T03:45:54.610Z,30.95
2023-04-01T03:46:54.570Z,29.66
2023-04-01T03:47:54.709Z,29.61
2023-04-01T03:48:54.905Z,27.84
2023-04-01T03:49:55.454Z,31.01
2023-04-01T03:50:54.673Z,29.88
2023-04-01T03:51:54.742Z,30.32
2023-04-01T03:52:54.717Z,30.14
2023-04-01T03:53:54.939Z,29.11
2023-04-01T03:54:54.802Z,30.83
2023-04-01T03:55:54.858Z,31.25
2023-04-01T03:56:54.875Z,31.38
2023-04-01T03:57:54.888Z,32.08
2023-04-01T03:58:55.024Z,31.57
2023-04-01T03:59:54.949Z,30.95
2023-04-01T04:00:54.992Z,31.39
2023-04-01T04:01:54.985Z,31.24
2023-04-01T04:02:55.189Z,31.31
2023-04-01T04:03:55.122Z,30.59
2023-04-01T04:04:55.067Z,31.91
2023-04-01T04:05:55.114Z,32.35
2023-04-01T04:06:55.139Z,32.66
2023-04-01T04:07:55.165Z,30.79
2023-04-01T04:08:55.199Z,33.54
2023-04-01T04:09:55.246Z,29.16
2023-04-01T04:10:55.253Z,31.48
2023-04-01T04:11:55.370Z,31.57
2023-04-01T04:12:55.318Z,29.73
2023-04-01T04:13:57.207Z,31.51
2023-04-01T04:14:55.510Z,29.79
2023-04-01T04:15:55.531Z,28.39
2023-04-01T04:16:55.562Z,27.81
2023-04-01T04:17:55.615Z,26.74
2023-04-01T04:18:55.616Z,28.16
2023-04-01T04:19:55.631Z,27.34
2023-04-01T04:20:55.626Z,29.34
2023-04-01T04:21:55.699Z,30.85
2023-04-01T04:22:55.781Z,29.50
2023-04-01T04:23:55.762Z,28.90
2023-04-01T04:24:55.774Z,28.51
2023-04-01T04:25:55.794Z,30.87
2023-04-01T04:26:55.846Z,27.95
2023-04-01T04:27:55.853Z,32.23
2023-04-01T04:28:56.006Z,30.70
2023-04-01T04:29:55.942Z,28.44
2023-04-01T04:30:55.930Z,30.04
2023-04-01T04:31:56.026Z,29.94
2023-04-01T04:32:56.016Z,30.54
2023-04-01T04:33:56.056Z,28.65
2023-04-01T04:34:56.029Z,31.39
2023-04-01T04:35:56.201Z,30.65
2023-04-01T04:36:56.450Z,28.87
2023-04-01T04:37:56.172Z,32.45
2023-04-01T04:38:56.163Z,29.26
2023-04-01T04:39:56.180Z,27.81
2023-04-01T04:40:56.259Z,29.48
2023-04-01T04:41:56.286Z,29.19
2023-04-01T04:42:56.314Z,30.81
2023-04-01T04:43:56.300Z,31.13
2023-04-01T04:44:56.372Z,27.10
2023-04-01T04:45:56.372Z,26.49
2023-04-01T04:46:58.401Z,31.03
2023-04-01T04:47:56.462Z,31.57
2023-04-01T04:48:56.445Z,31.03
2023-04-01T04:49:56.507Z,32.75
2023-04-01T04:50:56.551Z,27.00
2023-04-01T04:51:56.559Z,30.51
2023-04-01T04:52:56.631Z,29.17
2023-04-01T04:53:56.648Z,29.64
2023-04-01T04:54:56.691Z,30.78
2023-04-01T04:55:56.691Z,28.38
2023-04-01T04:56:56.737Z,30.56
2023-04-01T04:57:56.772Z,28.53
2023-04-01T04:58:56.773Z,28.71
2023-04-01T04:59:56.942Z,28.34
2023-04-01T05:00:56.902Z,29.71
2023-04-01T05:01:57.461Z,32.04
2023-04-01T05:02:56.930Z,28.61
2023-04-01T05:03:56.914Z,31.30
2023-04-01T05:04:56.911Z,29.89
2023-04-01T05:05:56.919Z,29.71
2023-04-01T05:06:56.980Z,29.41
2023-04-01T05:07:57.961Z,31.74
2023-04-01T05:08:57.001Z,29.01
2023-04-01T05:09:57.059Z,29.25
2023-04-01T05:10:57.130Z,30.20
2023-04-01T05:11:57.074Z,31.81
2023-04-01T05:12:57.124Z,28.57
2023-04-01T05:13:57.119Z,31.89
2023-04-01T05:14:57.192Z,28.59
2023-04-01T05:15:57.184Z,29.84
2023-04-01T05:16:57.289Z,31.55
2023-04-01T05:17:57.999Z,29.97
2023-04-01T05:18:57.303Z,30.22
2023-04-01T05:19:57.451Z,29.68
2023-04-01T05:20:57.348Z,30.32
2023-04-01T05:21:57.377Z,29.15
2023-04-01T05:22:57.379Z,30.76
2023-04-01T05:23:57.405Z,29.08
2023-04-01T05:24:57.410Z,29.60
2023-04-01T05:25:57.484Z,29.86
2023-04-01T05:26:58.461Z,27.36
2023-04-01T05:27:57.956Z,29.25
2023-04-01T05:28:57.698Z,27.88
2023-04-01T05:29:57.542Z,28.85
2023-04-01T05:30:57.543Z,32.82
2023-04-01T05:31:57.616Z,28.67
2023-04-01T05:32:57.702Z,31.43
2023-04-01T05:33:57.642Z,31.30
2023-04-01T05:34:57.669Z,31.14
2023-04-01T05:35:57.736Z,29.41
2023-04-01T05:36:57.746Z,31.55
2023-04-01T05:37:57.752Z,29.79
2023-04-01T05:38:57.964Z,31.99
2023-04-01T05:39:57.774Z,29.77
2023-04-01T05:40:57.831Z,31.45
2023-04-01T05:41:57.828Z,28.85
2023-04-01T05:42:57.826Z,30.46
2023-04-01T05:43:57.901Z,28.90
2023-04-01T05:44:57.917Z,28.73
2023-04-01T05:45:58.042Z,29.57
2023-04-01T05:46:57.969Z,30.43
2023-04-01T05:47:58.000Z,29.99
2023-04-01T05:48:58.488Z,30.20
2023-04-01T05:49:58.027Z,28.84
2023-04-01T05:50:58.103Z,29.90
2023-04-01T05:51:58.120Z,28.88
2023-04-01T05:52:58.141Z,29.18
2023-04-01T05:53:58.162Z,31.49
2023-04-01T05:54:58.177Z,31.36
2023-04-01T05:55:58.163Z,29.37
2023-04-01T05:56:58.345Z,29.75
2023-04-01T05:57:58.203Z,32.27
2023-04-01T05:58:58.325Z,31.60
2023-04-01T05:59:58.324Z,30.34
2023-04-01T06:01:08.507Z,33.09
2023-04-01T06:02:00.132Z,33.15
2023-04-01T06:02:58.412Z,33.18
2023-04-01T06:03:58.533Z,33.24
2023-04-01T06:04:58.358Z,32.45
2023-04-01T06:05:58.304Z,30.42
2023-04-01T06:06:58.361Z,31.20
2023-04-01T06:07:58.273Z,28.83
2023-04-01T06:08:58.279Z,29.99
2023-04-01T06:09:58.289Z,33.20
2023-04-01T06:10:58.287Z,32.27
2023-04-01T06:11:58.303Z,29.54
2023-04-01T06:12:58.278Z,31.24
2023-04-01T06:13:58.247Z,31.16
2023-04-01T06:14:58.260Z,32.78
2023-04-01T06:15:58.252Z,28.53
2023-04-01T06:16:58.324Z,33.20
2023-04-01T06:17:58.325Z,28.65
2023-04-01T06:18:58.239Z,28.64
2023-04-01T06:19:58.220Z,28.68
2023-04-01T06:20:58.265Z,30.93
2023-04-01T06:21:58.361Z,30.99
2023-04-01T06:22:58.348Z,29.51
2023-04-01T06:23:58.386Z,31.18
2023-04-01T06:24:58.393Z,31.29
2023-04-01T06:25:58.506Z,30.22
2023-04-01T06:26:58.464Z,28.15
2023-04-01T06:27:58.517Z,28.80
2023-04-01T06:28:58.483Z,29.55
2023-04-01T06:29:58.522Z,27.99
2023-04-01T06:30:58.597Z,33.54
2023-04-01T06:31:58.655Z,27.88
2023-04-01T06:32:58.661Z,30.95
2023-04-01T06:33:58.642Z,28.78
2023-04-01T06:34:58.670Z,30.85
2023-04-01T06:35:58.775Z,30.19
2023-04-01T06:36:58.738Z,28.36
2023-04-01T06:37:58.731Z,31.67
2023-04-01T06:38:58.885Z,30.33
2023-04-01T06:39:58.790Z,31.35
2023-04-01T06:40:58.878Z,31.84
2023-04-01T06:41:58.835Z,32.03
2023-04-01T06:42:58.915Z,31.70
2023-04-01T06:43:59.016Z,32.64
2023-04-01T06:44:58.920Z,30.32
2023-04-01T06:45:58.991Z,30.43
2023-04-01T06:46:58.934Z,29.16
2023-04-01T06:47:59.117Z,29.29
2023-04-01T06:48:58.978Z,26.61
2023-04-01T06:49:59.015Z,28.65
2023-04-01T06:50:59.096Z,26.67
2023-04-01T06:51:59.170Z,27.90
2023-04-01T06:52:59.138Z,26.94
2023-04-01T06:53:59.193Z,25.00
2023-04-01T06:54:59.297Z,27.55
2023-04-01T06:55:59.210Z,28.47
2023-04-01T06:56:59.228Z,29.13
2023-04-01T06:57:59.276Z,26.50
2023-04-01T06:58:59.298Z,29.62
2023-04-01T06:59:59.329Z,28.34
2023-04-01T07:00:59.397Z,28.97
2023-04-01T07:01:59.363Z,28.49
2023-04-01T07:02:59.573Z,29.25
2023-04-01T07:03:59.485Z,28.00
2023-04-01T07:04:59.421Z,26.79
2023-04-01T07:05:59.503Z,29.31
2023-04-01T07:06:59.513Z,26.43
2023-04-01T07:07:59.591Z,27.23
2023-04-01T07:08:59.727Z,25.00
2023-04-01T07:10:00.645Z,26.58
2023-04-01T07:10:59.688Z,28.50
2023-04-01T07:11:59.614Z,30.86
2023-04-01T07:12:59.800Z,29.07
2023-04-01T07:14:00.029Z,28.22
2023-04-01T07:14:59.753Z,29.52
2023-04-01T07:15:59.743Z,30.52
2023-04-01T07:16:59.850Z,29.65
2023-04-01T07:18:00.187Z,30.64
2023-04-01T07:18:59.931Z,28.57
2023-04-01T07:19:59.906Z,29.87
2023-04-01T07:20:59.966Z,29.60
2023-04-01T07:21:59.888Z,25.83
2023-04-01T07:23:00.005Z,28.84
2023-04-01T07:23:59.968Z,26.16
2023-04-01T07:25:00.034Z,28.12
2023-04-01T07:26:00.011Z,31.04
2023-04-01T07:27:00.117Z,28.35
2023-04-01T07:28:00.148Z,31.71
2023-04-01T07:29:00.128Z,29.46
2023-04-01T07:30:00.136Z,30.38
2023-04-01T07:31:00.373Z,29.34
2023-04-01T07:32:00.323Z,32.53
2023-04-01T07:33:00.614Z,28.92
2023-04-01T07:34:00.264Z,32.67
2023-04-01T07:35:00.277Z,34.33
2023-04-01T07:36:00.464Z,31.24
2023-04-01T07:37:00.356Z,31.73
2023-04-01T07:38:00.507Z,31.90
2023-04-01T07:39:00.453Z,31.42
2023-04-01T07:40:00.410Z,32.00
2023-04-01T07:41:00.551Z,33.45
2023-04-01T07:42:00.556Z,29.65
2023-04-01T07:43:00.556Z,32.21
2023-04-01T07:44:00.559Z,33.35
2023-04-01T07:45:00.655Z,32.19
2023-04-01T07:46:00.689Z,30.83
2023-04-01T07:47:00.639Z,32.12
2023-04-01T07:48:00.761Z,30.52
2023-04-01T07:49:00.789Z,30.01
2023-04-01T07:50:00.725Z,31.44
2023-04-01T07:51:00.953Z,31.32
2023-04-01T07:52:00.817Z,31.86
2023-04-01T07:53:00.839Z,31.64
2023-04-01T07:54:00.881Z,32.77
2023-04-01T07:55:00.861Z,31.21
2023-04-01T07:56:01.573Z,34.65
2023-04-01T07:57:01.054Z,33.39
2023-04-01T07:58:01.054Z,36.40
2023-04-01T07:59:01.085Z,33.85
2023-04-01T08:00:00.985Z,34.15
2023-04-01T08:01:01.096Z,32.52
2023-04-01T08:02:01.247Z,29.71
2023-04-01T08:03:01.129Z,27.22
2023-04-01T08:04:01.461Z,25.00
2023-04-01T08:05:01.206Z,28.26
2023-04-01T08:06:01.142Z,26.16
2023-04-01T08:07:01.265Z,28.15
2023-04-01T08:08:01.329Z,29.88
2023-04-01T08:09:01.215Z,29.40
2023-04-01T08:10:02.072Z,25.60
2023-04-01T08:11:01.358Z,28.03
2023-04-01T08:12:01.345Z,25.59
2023-04-01T08:13:01.498Z,32.40
2023-04-01T08:14:01.382Z,32.68
2023-04-01T08:15:01.400Z,33.19
2023-04-01T08:16:01.416Z,30.80
2023-04-01T08:17:01.501Z,27.50
2023-04-01T08:18:01.670Z,32.56
2023-04-01T08:19:01.572Z,33.43
2023-04-01T08:20:01.718Z,31.03
2023-04-01T08:21:01.643Z,28.80
2023-04-01T08:22:01.691Z,28.82
2023-04-01T08:23:01.702Z,29.08
2023-04-01T08:24:01.848Z,29.49
2023-04-01T08:25:01.880Z,32.23
2023-04-01T08:26:01.868Z,29.15
2023-04-01T08:27:01.861Z,31.32
2023-04-01T08:28:01.878Z,32.14
2023-04-01T08:29:01.875Z,26.24
2023-04-01T08:30:02.016Z,31.76
2023-04-01T08:31:01.992Z,26.87
2023-04-01T08:32:02.138Z,30.34
2023-04-01T08:33:02.041Z,30.53
2023-04-01T08:34:02.142Z,26.61
2023-04-01T08:35:02.045Z,29.95
2023-04-01T08:36:02.175Z,28.60
2023-04-01T08:37:02.235Z,26.04
2023-04-01T08:38:02.163Z,29.10
2023-04-01T08:39:02.154Z,29.82
2023-04-01T08:40:02.158Z,27.10
2023-04-01T08:41:04.096Z,29.95
2023-04-01T08:42:02.276Z,30.17
2023-04-01T08:43:02.309Z,28.62
2023-04-01T08:44:02.349Z,27.83
2023-04-01T08:45:02.332Z,28.83
2023-04-01T08:46:02.333Z,27.96
2023-04-01T08:47:02.527Z,31.72
2023-04-01T08:48:02.567Z,26.26
2023-04-01T08:49:02.518Z,26.42
2023-04-01T08:50:02.506Z,33.87
2023-04-01T08:51:03.612Z,28.76
2023-04-01T08:52:02.624Z,33.60
2023-04-01T08:53:02.454Z,34.70
2023-04-01T08:54:02.567Z,29.82
2023-04-01T08:55:02.479Z,33.49
2023-04-01T08:56:02.594Z,30.13
2023-04-01T08:57:02.552Z,31.03
2023-04-01T08:58:02.509Z,34.17
2023-04-01T08:59:02.584Z,32.13
2023-04-01T09:00:02.504Z,32.60
2023-04-01T09:01:02.589Z,32.44
2023-04-01T09:02:02.506Z,34.61
2023-04-01T09:03:02.528Z,36.26
2023-04-01T09:04:02.517Z,30.96
2023-04-01T09:05:02.391Z,34.37
2023-04-01T09:06:02.575Z,34.13
2023-04-01T09:07:02.464Z,32.98
2023-04-01T09:08:02.381Z,32.64
2023-04-01T09:09:02.435Z,33.38
2023-04-01T09:10:02.442Z,33.78
2023-04-01T09:11:02.476Z,33.25
2023-04-01T09:13:21.105Z,25.00
2023-04-01T09:14:21.130Z,25.00
2023-04-01T09:15:21.160Z,25.00
2023-04-01T09:16:21.150Z,25.00
2023-04-01T09:17:21.852Z,25.00
2023-04-01T09:18:21.147Z,26.64
2023-04-01T09:19:21.079Z,26.81
2023-04-01T09:20:21.195Z,28.31
2023-04-01T09:21:21.055Z,27.11
2023-04-01T09:22:21.063Z,26.55
2023-04-01T09:23:21.083Z,28.69
2023-04-01T09:24:21.070Z,29.16
2023-04-01T09:25:21.061Z,30.17
2023-04-01T09:26:21.029Z,29.26
2023-04-01T09:27:21.014Z,27.53
2023-04-01T09:28:21.040Z,28.76
2023-04-01T09:29:21.011Z,27.76
2023-04-01T09:30:21.347Z,27.49
2023-04-01T09:31:21.114Z,27.22
2023-04-01T09:32:21.901Z,31.21
2023-04-01T09:33:20.990Z,27.49
2023-04-01T09:34:20.969Z,30.02
2023-04-01T09:35:20.983Z,28.68
2023-04-01T09:36:21.046Z,28.25
2023-04-01T09:37:21.013Z,28.93
2023-04-01T09:38:20.950Z,26.81
2023-04-01T09:39:21.369Z,27.74
2023-04-01T09:40:20.999Z,26.88
2023-04-01T09:41:20.927Z,27.68
2023-04-01T09:42:20.927Z,30.27
2023-04-01T09:43:20.902Z,29.13
2023-04-01T09:44:20.946Z,29.77
2023-04-01T09:45:20.926Z,26.90
2023-04-01T09:46:20.868Z,29.17
2023-04-01T09:47:21.868Z,32.14
2023-04-01T09:48:20.865Z,28.99
2023-04-01T09:49:20.878Z,25.00
2023-04-01T09:50:20.983Z,26.90
2023-04-01T09:51:20.827Z,31.28
2023-04-01T09:52:20.872Z,35.28
2023-04-01T09:53:21.319Z,28.79
2023-04-01T09:54:20.859Z,29.63
2023-04-01T09:55:20.899Z,28.71
2023-04-01T09:56:20.794Z,29.56
2023-04-01T09:57:20.885Z,29.52
2023-04-01T09:58:20.775Z,29.94
2023-04-01T09:59:20.838Z,29.63
2023-04-01T10:00:20.818Z,28.26
2023-04-01T10:01:20.833Z,27.45
2023-04-01T10:02:20.814Z,30.05
2023-04-01T10:03:20.769Z,27.40
2023-04-01T10:04:20.755Z,27.16
2023-04-01T10:05:20.774Z,26.16
2023-04-01T10:06:20.746Z,28.32
2023-04-01T10:07:20.782Z,27.56
2023-04-01T10:08:20.839Z,28.11
2023-04-01T10:09:20.792Z,29.20
2023-04-01T10:10:20.813Z,27.74
2023-04-01T10:11:20.893Z,30.59
2023-04-01T10:12:20.905Z,28.88
2023-04-01T10:13:21.313Z,26.81
2023-04-01T10:14:21.117Z,27.63
2023-04-01T10:15:21.038Z,25.00
2023-04-01T10:16:21.147Z,26.03
2023-04-01T10:18:39.888Z,25.00
2023-04-01T10:19:39.869Z,25.00
2023-04-01T10:20:39.844Z,25.00
2023-04-01T10:21:39.845Z,25.00
2023-04-01T10:22:39.900Z,25.00
2023-04-01T10:23:39.902Z,26.08
2023-04-01T10:24:39.799Z,26.57
2023-04-01T10:25:39.850Z,25.00
2023-04-01T10:26:39.817Z,25.75
2023-04-01T10:27:39.804Z,25.53
2023-04-01T10:28:39.810Z,26.04
2023-04-01T10:29:39.819Z,25.85
2023-04-01T10:30:39.818Z,25.05
2023-04-01T10:31:39.813Z,27.64
2023-04-01T10:32:39.843Z,30.59
2023-04-01T10:33:39.773Z,25.00
2023-04-01T10:34:39.736Z,25.92
2023-04-01T10:35:39.784Z,29.60
2023-04-01T10:36:39.750Z,30.12
2023-04-01T10:37:39.759Z,26.46
2023-04-01T10:38:39.768Z,27.88
2023-04-01T10:39:39.722Z,25.16
2023-04-01T10:40:39.745Z,26.45
2023-04-01T10:41:39.716Z,26.65
2023-04-01T10:42:39.696Z,29.72
2023-04-01T10:43:39.709Z,25.82
2023-04-01T10:44:39.733Z,27.34
2023-04-01T10:45:39.754Z,25.46
2023-04-01T10:46:39.725Z,26.57
2023-04-01T10:47:39.738Z,28.20
2023-04-01T10:48:39.654Z,30.64
2023-04-01T10:49:39.659Z,26.97
2023-04-01T10:50:39.644Z,26.71
2023-04-01T10:51:39.656Z,25.00
2023-04-01T10:52:39.626Z,29.10
2023-04-01T10:53:39.614Z,26.43
2023-04-01T10:54:39.674Z,29.74
2023-04-01T10:55:39.675Z,25.00
2023-04-01T10:56:39.748Z,25.69
2023-04-01T10:57:39.767Z,27.39
2023-04-01T10:58:39.754Z,27.54
2023-04-01T10:59:39.773Z,28.21
2023-04-01T11:00:39.784Z,25.91
2023-04-01T11:01:39.875Z,31.48
2023-04-01T11:02:39.967Z,29.92
2023-04-01T11:03:39.959Z,31.02
2023-04-01T11:04:39.881Z,32.56
2023-04-01T11:05:39.913Z,31.45
2023-04-01T11:06:39.906Z,31.02
2023-04-01T11:07:39.970Z,27.18
2023-04-01T11:08:39.977Z,27.44
2023-04-01T11:09:39.981Z,26.97
2023-04-01T11:10:40.028Z,28.08
2023-04-01T11:11:40.060Z,28.63
2023-04-01T11:12:40.032Z,26.07
2023-04-01T11:13:40.070Z,26.80
2023-04-01T11:14:40.123Z,29.41
2023-04-01T11:15:40.198Z,30.63
2023-04-01T11:16:40.277Z,30.57
2023-04-01T11:17:40.341Z,32.95
2023-04-01T11:18:40.271Z,38.79
2023-04-01T11:19:40.290Z,41.23
2023-04-01T11:20:40.335Z,36.89
2023-04-01T11:21:40.328Z,37.76
2023-04-01T11:22:40.381Z,32.35
2023-04-01T11:23:40.383Z,32.93
2023-04-01T11:24:40.470Z,29.89
2023-04-01T11:25:40.487Z,36.56
2023-04-01T11:26:40.489Z,35.36
2023-04-01T11:27:40.531Z,34.71
2023-04-01T11:28:40.481Z,38.04
2023-04-01T11:29:49.775Z,44.54
2023-04-01T11:30:41.502Z,44.65
2023-04-01T11:31:40.508Z,42.92
2023-04-01T11:32:40.522Z,37.39
2023-04-01T11:33:40.502Z,37.57
2023-04-01T11:34:40.521Z,33.60
2023-04-01T11:35:40.485Z,33.84
2023-04-01T11:36:40.513Z,33.27
2023-04-01T11:37:40.431Z,33.53
2023-04-01T11:38:40.458Z,31.61
2023-04-01T11:39:40.462Z,31.22
2023-04-01T11:40:40.460Z,30.80
2023-04-01T11:41:40.402Z,27.56
2023-04-01T11:42:40.413Z,30.46
2023-04-01T11:43:40.390Z,30.67
2023-04-01T11:44:40.373Z,29.91
2023-04-01T11:45:40.410Z,28.97
2023-04-01T11:46:40.480Z,29.19
2023-04-01T11:47:40.498Z,26.92
2023-04-01T11:48:40.522Z,28.11
2023-04-01T11:49:40.564Z,27.80
2023-04-01T11:50:40.525Z,26.92
2023-04-01T11:51:40.582Z,29.77
2023-04-01T11:52:40.614Z,27.00
2023-04-01T11:53:40.652Z,27.40
2023-04-01T11:54:40.661Z,28.12
2023-04-01T11:55:40.637Z,28.64
2023-04-01T11:56:40.702Z,26.87
2023-04-01T11:57:40.721Z,30.50
2023-04-01T11:58:40.737Z,29.06
2023-04-01T11:59:40.813Z,30.70
2023-04-01T12:00:40.884Z,32.33
2023-04-01T12:01:40.837Z,31.71
2023-04-01T12:02:40.899Z,31.76
2023-04-01T12:03:40.985Z,27.83
2023-04-01T12:04:40.954Z,34.60
2023-04-01T12:05:40.926Z,32.27
2023-04-01T12:06:40.988Z,30.92
2023-04-01T12:07:40.999Z,35.62
2023-04-01T12:08:41.009Z,37.07
2023-04-01T12:09:41.066Z,36.61
2023-04-01T12:10:41.084Z,38.02
2023-04-01T12:11:41.091Z,35.51
2023-04-01T12:12:47.794Z,34.59
2023-04-01T12:13:42.115Z,34.73
2023-04-01T12:14:41.122Z,34.69
2023-04-01T12:15:41.103Z,34.74
2023-04-01T12:16:41.150Z,32.25
2023-04-01T12:17:41.114Z,37.87
2023-04-01T12:18:41.089Z,37.23
2023-04-01T12:19:41.070Z,34.09
2023-04-01T12:20:41.053Z,34.68
2023-04-01T12:21:41.101Z,31.03
2023-04-01T12:22:41.068Z,29.30
2023-04-01T12:23:41.035Z,29.95
2023-04-01T12:24:41.048Z,30.16
2023-04-01T12:25:41.042Z,30.61
2023-04-01T12:26:41.073Z,30.67
2023-04-01T12:27:41.110Z,30.09
2023-04-01T12:28:41.159Z,33.97
2023-04-01T12:29:41.148Z,29.05
2023-04-01T12:30:41.158Z,27.90
2023-04-01T12:31:41.184Z,25.00
2023-04-01T12:32:41.235Z,28.27
2023-04-01T12:33:41.240Z,28.55
2023-04-01T12:34:41.255Z,26.95
2023-04-01T12:35:41.284Z,28.75
2023-04-01T12:36:41.247Z,29.16
2023-04-01T12:37:41.263Z,29.80
2023-04-01T12:38:41.298Z,25.73
2023-04-01T12:39:41.290Z,26.17
2023-04-01T12:40:41.309Z,28.86
2023-04-01T12:41:41.356Z,31.54
2023-04-01T12:42:41.395Z,34.89
2023-04-01T12:43:41.404Z,42.74
2023-04-01T12:44:41.421Z,45.12
2023-04-01T12:45:41.418Z,40.13
2023-04-01T12:46:41.463Z,40.84
2023-04-01T12:47:41.468Z,41.35
2023-04-01T12:48:41.488Z,46.81
2023-04-01T12:49:41.500Z,45.03
2023-04-01T12:50:41.508Z,40.58
2023-04-01T12:51:41.493Z,40.58